Airfield :
LOGIN :

Register | Disclaimer

   EN    FR    IT 

 










Legend :    VFR   Marginal VFR   IFR   Intensive IFR   Very Intensive IFR
Visi :
Ceiling :
>= 8 km
>= 3000ft
5 to 8 km
1000 to 3000 ft
1500m to 5 km
500 to 1000 ft
800 to 1500m
200 to 500 ft
< 800m
< 200 ft
Symbols :   Thunderstorms  Fog  Heavy snow  Heavy precipitations  Wind > 20 kt
SIGMETs :     Misc.  Thunderstorms  Icing  Turbulence  Mountain Waves  Volcanic Ashes







- Airport Elevation : 106 ft
- IATA code : XDA
- Download approach charts


LFBY - Dax Seyresse

CURRENT METAR :
  • 191700Z AUTO 28004KT 260V320 7000 // ////// 17/14 Q1019

EXPIRED METARs :
  • 191630Z AUTO 28005KT 250V320 9000 // ////// 19/15 Q1018
  • 191600Z AUTO 27005KT 230V290 9000 // ////// 21/15 Q1018
  • 191530Z AUTO 25006KT 220V280 9000 // ////// 22/15 Q1018
  • 191500Z AUTO 27006KT 9999 // ////// 22/16 Q1018
  • 191430Z AUTO 24004KT 200V280 9000 // ////// 23/16 Q1018

TAF TAF LFBY
Valid from the 19 at 09:00 until the 19 at 18:00 UTC


190800Z 1909/1918 18003KT 0300 FG VV///
BECMG 1910/1912 8000 NSW SCT010
No reported NOTAMs for that airfield.



MET'MAP, your aeronautical weather chart ! - Copyright ORBIFLY December 2007 - Disclaimer

ORBIFLY MET'MAP TEAM :

Programming & Development : Alexandra Zaïnal
Concept & Development : Baudouin d'Aumeries
Co-Development & Prog : Marc-Olivier Méhu
Technical & hardware support : Manuel Goepfert

Contact : metmap@orbifly.com




SOURCES & CREDITS :

   NOAA